| time (UTC) | temp F | wind direction | speed MPH | gust MPH | rain 1hr in | rain 24hr in | rain mn in | humidity % | barometer mb |
| 20260903015505 | 66 | 215 | 6.0 | 15.0 | 0.00 | 0.02 | 0.00 | 81 | 1015.9 |
| 20260903015005 | 66 | 211 | 5.0 | 15.0 | 0.00 | 0.02 | 0.00 | 80 | 1015.9 |
| 20260903014505 | 66 | 212 | 4.0 | 13.0 | 0.00 | 0.02 | 0.00 | 80 | 1015.9 |
| 20260903014005 | 66 | 209 | 5.0 | 13.0 | 0.00 | 0.02 | 0.00 | 80 | 1016.0 |
| 20260903013006 | 66 | 213 | 4.0 | 12.0 | 0.00 | 0.02 | 0.00 | 79 | 1016.1 |
| 20260903012505 | 66 | 210 | 4.0 | 12.0 | 0.00 | 0.02 | 0.00 | 78 | 1016.1 |
| 20260903011506 | 66 | 205 | 5.0 | 12.0 | 0.00 | 0.02 | 0.00 | 78 | 1016.1 |
| 20260903011005 | 66 | 207 | 6.0 | 18.0 | 0.00 | 0.02 | 0.00 | 77 | 1016.2 |
| 20260903010506 | 66 | 207 | 6.0 | 18.0 | 0.00 | 0.02 | 0.00 | 77 | 1016.3 |
| 20260903010005 | 66 | 206 | 5.0 | 13.0 | 0.00 | 0.02 | 0.00 | 77 | 1016.5 |
| 20260903005505 | 66 | 203 | 5.0 | 13.0 | 0.00 | 0.02 | 0.00 | 77 | 1016.5 |
| 20260903005005 | 66 | 205 | 5.0 | 13.0 | 0.00 | 0.02 | 0.00 | 77 | 1016.5 |
| 20260903004505 | 66 | 212 | 5.0 | 16.0 | 0.00 | 0.02 | 0.00 | 78 | 1016.5 |
| 20260903004005 | 66 | 213 | 5.0 | 16.0 | 0.00 | 0.02 | 0.00 | 78 | 1016.7 |
| 20260903003505 | 65 | 210 | 4.0 | 12.0 | 0.00 | 0.02 | 0.00 | 78 | 1016.7 |
| 20260903003005 | 66 | 207 | 5.0 | 17.0 | 0.00 | 0.02 | 0.00 | 78 | 1016.8 |
| 20260903002505 | 66 | 209 | 6.0 | 17.0 | 0.00 | 0.02 | 0.00 | 76 | 1016.9 |
| 20260903002005 | 66 | 210 | 5.0 | 14.0 | 0.00 | 0.02 | 0.00 | 76 | 1016.9 |
| 20260903001506 | 66 | 210 | 5.0 | 11.0 | 0.00 | 0.02 | 0.00 | 76 | 1016.9 |
| 20260903001005 | 66 | 212 | 5.0 | 11.0 | 0.00 | 0.02 | 0.00 | 75 | 1016.9 |
| 20260903000005 | 66 | 206 | 6.0 | 13.0 | 0.00 | 0.02 | 0.00 | 75 | 1017.0 |
| 20260902235505 | 66 | 209 | 5.0 | 13.0 | 0.00 | 0.02 | 0.00 | 76 | 1017.0 |
| 20260902235005 | 66 | 205 | 5.0 | 12.0 | 0.00 | 0.02 | 0.00 | 75 | 1017.0 |
| 20260902234505 | 66 | 206 | 5.0 | 14.0 | 0.00 | 0.02 | 0.00 | 75 | 1017.2 |
| 20260902234005 | 66 | 210 | 6.0 | 14.0 | 0.00 | 0.02 | 0.00 | 75 | 1017.2 |
| 20260902233005 | 66 | 207 | 6.0 | 15.0 | 0.00 | 0.02 | 0.00 | 75 | 1017.1 |
| 20260902232505 | 66 | 206 | 6.0 | 13.0 | 0.00 | 0.02 | 0.00 | 75 | 1017.2 |
| 20260902232006 | 66 | 208 | 6.0 | 13.0 | 0.00 | 0.02 | 0.00 | 76 | 1017.2 |
| 20260902231505 | 65 | 208 | 4.0 | 12.0 | 0.00 | 0.02 | 0.00 | 77 | 1017.3 |
| 20260902231005 | 65 | 207 | 3.0 | 10.0 | 0.00 | 0.02 | 0.00 | 78 | 1017.5 |
| 20260902230506 | 65 | 196 | 2.0 | 9.0 | 0.00 | 0.02 | 0.00 | 79 | 1017.5 |
| 20260902230005 | 65 | 189 | 2.0 | 10.0 | 0.00 | 0.02 | 0.00 | 79 | 1017.5 |
| 20260902225506 | 64 | 188 | 2.0 | 10.0 | 0.00 | 0.02 | 0.00 | 80 | 1017.5 |
| 20260902225006 | 64 | 188 | 3.0 | 7.0 | 0.00 | 0.02 | 0.00 | 81 | 1017.6 |
| 20260902224505 | 64 | 192 | 2.0 | 7.0 | 0.00 | 0.02 | 0.00 | 81 | 1017.6 |
| 20260902224005 | 64 | 197 | 1.0 | 4.0 | 0.00 | 0.02 | 0.00 | 82 | 1017.7 |
| 20260902223506 | 64 | 196 | 1.0 | 4.0 | 0.00 | 0.02 | 0.00 | 81 | 1017.8 |
| 20260902222506 | 64 | 206 | 2.0 | 8.0 | 0.00 | 0.02 | 0.00 | 81 | 1017.8 |
| 20260902222005 | 64 | 214 | 2.0 | 7.0 | 0.00 | 0.02 | 0.00 | 80 | 1017.9 |
| 20260902221505 | 65 | 223 | 3.0 | 10.0 | 0.00 | 0.02 | 0.00 | 79 | 1018.0 |
| 20260902221005 | 65 | 228 | 5.0 | 14.0 | 0.00 | 0.02 | 0.00 | 78 | 1018.1 |
| 20260902220505 | 65 | 237 | 7.0 | 14.0 | 0.00 | 0.02 | 0.00 | 77 | 1018.2 |
| 20260902220005 | 66 | 244 | 8.0 | 20.0 | 0.00 | 0.02 | 0.00 | 76 | 1018.4 |
| 20260902214506 | 66 | 229 | 5.0 | 11.0 | 0.00 | 0.02 | 0.02 | 76 | 1018.1 |
| 20260902214005 | 66 | 230 | 5.0 | 13.0 | 0.00 | 0.02 | 0.02 | 76 | 1018.0 |
| 20260902213006 | 66 | 219 | 4.0 | 10.0 | 0.00 | 0.02 | 0.02 | 77 | 1018.0 |
| 20260902212505 | 66 | 194 | 4.0 | 12.0 | 0.00 | 0.02 | 0.02 | 79 | 1018.0 |
| 20260902212005 | 66 | 183 | 2.0 | 12.0 | 0.00 | 0.02 | 0.02 | 80 | 1018.0 |
| 20260902211506 | 65 | 190 | 0.0 | 4.0 | 0.00 | 0.02 | 0.02 | 82 | 1018.0 |
| 20260902211006 | 65 | 0 | 0.0 | 0.0 | 0.00 | 0.02 | 0.02 | 83 | 1018.0 |
| 20260902210506 | 65 | 0 | 0.0 | 0.0 | 0.00 | 0.02 | 0.02 | 83 | 1018.1 |
| 20260902210006 | 65 | 0 | 0.0 | 0.0 | 0.00 | 0.02 | 0.02 | 84 | 1018.1 |
| 20260902205506 | 65 | 0 | 0.0 | 0.0 | 0.00 | 0.02 | 0.02 | 84 | 1018.0 |
| 20260902205005 | 65 | 0 | 0.0 | 0.0 | 0.00 | 0.02 | 0.02 | 84 | 1018.2 |
| 20260902204506 | 65 | 0 | 0.0 | 0.0 | 0.00 | 0.02 | 0.02 | 84 | 1018.2 |
| 20260902204006 | 65 | 0 | 0.0 | 0.0 | 0.00 | 0.02 | 0.02 | 84 | 1018.2 |
| 20260902203506 | 65 | 0 | 0.0 | 0.0 | 0.00 | 0.02 | 0.02 | 84 | 1018.2 |
| 20260902203007 | 65 | 0 | 0.0 | 0.0 | 0.00 | 0.02 | 0.02 | 84 | 1018.3 |
| 20260902202506 | 65 | 0 | 0.0 | 0.0 | 0.00 | 0.02 | 0.02 | 84 | 1018.3 |
| 20260902202005 | 65 | 0 | 0.0 | 0.0 | 0.00 | 0.02 | 0.02 | 83 | 1018.3 |
| 20260902201506 | 65 | 0 | 0.0 | 0.0 | 0.00 | 0.02 | 0.02 | 83 | 1018.4 |
| 20260902201006 | 65 | 0 | 0.0 | 0.0 | 0.00 | 0.02 | 0.02 | 83 | 1018.5 |
| 20260902200505 | 65 | 0 | 0.0 | 0.0 | 0.00 | 0.02 | 0.02 | 83 | 1018.6 |
| 20260902200006 | 65 | 0 | 0.0 | 0.0 | 0.00 | 0.02 | 0.02 | 83 | 1018.6 |
| 20260902195506 | 65 | 0 | 0.0 | 0.0 | 0.00 | 0.02 | 0.02 | 83 | 1018.6 |
| 20260902195006 | 65 | 0 | 0.0 | 0.0 | 0.00 | 0.02 | 0.02 | 83 | 1018.6 |
| 20260902194506 | 65 | 0 | 0.0 | 0.0 | 0.00 | 0.02 | 0.02 | 84 | 1018.6 |
| 20260902194006 | 65 | 0 | 0.0 | 0.0 | 0.00 | 0.02 | 0.02 | 84 | 1018.6 |
| 20260902193505 | 66 | 0 | 0.0 | 0.0 | 0.00 | 0.02 | 0.02 | 84 | 1018.7 |
| 20260902193006 | 66 | 201 | 0.0 | 5.0 | 0.00 | 0.02 | 0.02 | 84 | 1018.7 |
| 20260902192506 | 66 | 196 | 1.0 | 6.0 | 0.00 | 0.02 | 0.02 | 83 | 1018.8 |
| 20260902192007 | 66 | 204 | 2.0 | 8.0 | 0.00 | 0.02 | 0.02 | 82 | 1018.8 |
| 20260902191506 | 66 | 208 | 2.0 | 8.0 | 0.00 | 0.02 | 0.02 | 82 | 1018.9 |
| 20260902191005 | 67 | 207 | 2.0 | 5.0 | 0.00 | 0.02 | 0.02 | 80 | 1018.9 |
| 20260902190507 | 67 | 209 | 1.0 | 5.0 | 0.00 | 0.02 | 0.02 | 80 | 1018.8 |
| 20260902185506 | 66 | 207 | 1.0 | 6.0 | 0.00 | 0.02 | 0.02 | 79 | 1018.8 |
| 20260902185006 | 66 | 210 | 1.0 | 4.0 | 0.00 | 0.02 | 0.02 | 79 | 1018.7 |
| 20260902184506 | 67 | 212 | 1.0 | 4.0 | 0.00 | 0.02 | 0.02 | 79 | 1018.7 |
| 20260902184006 | 67 | 213 | 1.0 | 4.0 | 0.00 | 0.02 | 0.02 | 79 | 1018.7 |
| 20260902183506 | 67 | 209 | 1.0 | 4.0 | 0.00 | 0.02 | 0.02 | 79 | 1018.7 |
| 20260902183006 | 67 | 202 | 1.0 | 4.0 | 0.00 | 0.02 | 0.02 | 78 | 1018.7 |
| 20260902182005 | 67 | 197 | 1.0 | 4.0 | 0.00 | 0.02 | 0.02 | 78 | 1018.7 |
| 20260902181506 | 67 | 202 | 1.0 | 7.0 | 0.00 | 0.02 | 0.02 | 77 | 1018.8 |
| 20260902181006 | 67 | 207 | 1.0 | 7.0 | 0.00 | 0.02 | 0.02 | 77 | 1018.8 |
| 20260902180507 | 67 | 208 | 1.0 | 7.0 | 0.00 | 0.02 | 0.02 | 76 | 1018.9 |
| 20260902180007 | 67 | 210 | 2.0 | 7.0 | 0.00 | 0.02 | 0.02 | 76 | 1018.9 |
| 20260902175506 | 67 | 228 | 2.0 | 7.0 | 0.00 | 0.02 | 0.02 | 76 | 1018.9 |
| 20260902175006 | 67 | 248 | 3.0 | 8.0 | 0.00 | 0.02 | 0.02 | 75 | 1018.9 |
| 20260902174507 | 68 | 253 | 3.0 | 10.0 | 0.00 | 0.02 | 0.02 | 75 | 1018.9 |
| 20260902174005 | 68 | 258 | 4.0 | 10.0 | 0.00 | 0.02 | 0.02 | 75 | 1018.9 |
| 20260902173506 | 68 | 249 | 3.0 | 9.0 | 0.00 | 0.02 | 0.02 | 75 | 1019.0 |
| 20260902173006 | 68 | 246 | 3.0 | 8.0 | 0.00 | 0.02 | 0.02 | 75 | 1018.9 |
| 20260902172506 | 68 | 254 | 3.0 | 8.0 | 0.00 | 0.02 | 0.02 | 75 | 1018.8 |
| 20260902172006 | 68 | 247 | 2.0 | 8.0 | 0.00 | 0.02 | 0.02 | 76 | 1018.8 |
| 20260902171506 | 68 | 239 | 2.0 | 8.0 | 0.00 | 0.02 | 0.02 | 76 | 1018.9 |
| 20260902171006 | 68 | 227 | 3.0 | 8.0 | 0.00 | 0.02 | 0.02 | 76 | 1018.8 |
| 20260902170505 | 68 | 213 | 3.0 | 9.0 | 0.00 | 0.02 | 0.02 | 75 | 1018.9 |
| 20260902170005 | 68 | 213 | 4.0 | 10.0 | 0.00 | 0.02 | 0.02 | 75 | 1018.8 |
| 20260902165505 | 68 | 221 | 4.0 | 11.0 | 0.00 | 0.02 | 0.02 | 74 | 1018.9 |
| 20260902165006 | 68 | 225 | 3.0 | 11.0 | 0.00 | 0.02 | 0.02 | 74 | 1018.9 |
| 20260902164506 | 68 | 223 | 3.0 | 8.0 | 0.00 | 0.02 | 0.02 | 74 | 1019.0 |
| 20260902163506 | 69 | 224 | 2.0 | 8.0 | 0.00 | 0.02 | 0.02 | 74 | 1018.9 |
| 20260902163006 | 69 | 225 | 3.0 | 10.0 | 0.00 | 0.02 | 0.02 | 73 | 1019.0 |
| 20260902162006 | 69 | 240 | 4.0 | 10.0 | 0.00 | 0.02 | 0.02 | 72 | 1019.1 |
| 20260902161505 | 69 | 224 | 4.0 | 11.0 | 0.00 | 0.02 | 0.02 | 73 | 1019.1 |
| 20260902161005 | 68 | 227 | 4.0 | 11.0 | 0.00 | 0.02 | 0.02 | 72 | 1019.1 |
| 20260902160007 | 68 | 256 | 5.0 | 14.0 | 0.00 | 0.02 | 0.02 | 75 | 1019.2 |
| 20260902155506 | 68 | 254 | 4.0 | 11.0 | 0.00 | 0.02 | 0.02 | 75 | 1019.3 |
| 20260902155006 | 68 | 252 | 4.0 | 11.0 | 0.00 | 0.02 | 0.02 | 75 | 1019.3 |
| 20260902154506 | 68 | 246 | 4.0 | 11.0 | 0.00 | 0.02 | 0.02 | 76 | 1019.3 |
| 20260902153506 | 68 | 248 | 4.0 | 10.0 | 0.00 | 0.02 | 0.02 | 74 | 1019.4 |
| 20260902153007 | 68 | 238 | 5.0 | 11.0 | 0.00 | 0.02 | 0.02 | 74 | 1019.4 |
| 20260902152505 | 69 | 244 | 6.0 | 11.0 | 0.00 | 0.02 | 0.02 | 73 | 1019.4 |
| 20260902152005 | 69 | 244 | 5.0 | 11.0 | 0.00 | 0.02 | 0.02 | 73 | 1019.4 |
| 20260902151505 | 69 | 231 | 4.0 | 12.0 | 0.00 | 0.02 | 0.02 | 75 | 1019.4 |
| 20260902150505 | 69 | 250 | 6.0 | 15.0 | 0.00 | 0.02 | 0.02 | 74 | 1019.5 |
| 20260902150005 | 69 | 254 | 6.0 | 14.0 | 0.00 | 0.02 | 0.02 | 73 | 1019.4 |
| 20260902145506 | 69 | 251 | 6.0 | 11.0 | 0.00 | 0.02 | 0.02 | 73 | 1019.5 |
| 20260902145006 | 69 | 249 | 7.0 | 14.0 | 0.00 | 0.02 | 0.02 | 72 | 1019.6 |
| 20260902144506 | 69 | 254 | 8.0 | 15.0 | 0.00 | 0.02 | 0.02 | 72 | 1019.6 |
| 20260902144005 | 70 | 258 | 8.0 | 15.0 | 0.00 | 0.02 | 0.02 | 72 | 1019.6 |
| 20260902143506 | 70 | 249 | 8.0 | 15.0 | 0.00 | 0.02 | 0.02 | 70 | 1019.5 |
| 20260902143006 | 70 | 248 | 6.0 | 14.0 | 0.00 | 0.02 | 0.02 | 71 | 1019.5 |
| 20260902142505 | 70 | 253 | 6.0 | 14.0 | 0.00 | 0.02 | 0.02 | 71 | 1019.5 |
| 20260902142007 | 70 | 250 | 7.0 | 15.0 | 0.00 | 0.02 | 0.02 | 69 | 1019.4 |
| 20260902141506 | 71 | 251 | 8.0 | 15.0 | 0.00 | 0.02 | 0.02 | 69 | 1019.5 |
| 20260902141005 | 71 | 255 | 8.0 | 15.0 | 0.00 | 0.02 | 0.02 | 67 | 1019.5 |
| 20260902140506 | 71 | 259 | 6.0 | 13.0 | 0.00 | 0.02 | 0.02 | 68 | 1019.4 |
| 20260902140007 | 71 | 250 | 6.0 | 17.0 | 0.00 | 0.02 | 0.02 | 68 | 1019.4 |
| 20260902135505 | 71 | 250 | 5.0 | 17.0 | 0.00 | 0.02 | 0.02 | 68 | 1019.4 |
| 20260902135005 | 71 | 262 | 5.0 | 12.0 | 0.00 | 0.02 | 0.02 | 69 | 1019.4 |
| 20260902134505 | 72 | 259 | 6.0 | 15.0 | 0.00 | 0.02 | 0.02 | 67 | 1019.5 |
| 20260902134006 | 72 | 250 | 6.0 | 15.0 | 0.00 | 0.02 | 0.02 | 66 | 1019.4 |
| 20260902133506 | 72 | 254 | 7.0 | 14.0 | 0.00 | 0.02 | 0.02 | 67 | 1019.5 |
| 20260902133006 | 72 | 255 | 6.0 | 14.0 | 0.00 | 0.02 | 0.02 | 67 | 1019.5 |
| 20260902132506 | 72 | 251 | 5.0 | 11.0 | 0.00 | 0.02 | 0.02 | 70 | 1019.5 |
| 20260902132006 | 71 | 257 | 5.0 | 14.0 | 0.00 | 0.02 | 0.02 | 71 | 1019.6 |
| 20260902131005 | 70 | 241 | 5.0 | 11.0 | 0.00 | 0.02 | 0.02 | 73 | 1019.5 |
| 20260902130506 | 70 | 248 | 6.0 | 13.0 | 0.00 | 0.02 | 0.02 | 73 | 1019.5 |
| 20260902130006 | 70 | 257 | 7.0 | 13.0 | 0.00 | 0.02 | 0.02 | 71 | 1019.6 |
| 20260902125506 | 70 | 256 | 7.0 | 15.0 | 0.00 | 0.02 | 0.02 | 72 | 1019.5 |
| 20260902125006 | 70 | 251 | 6.0 | 15.0 | 0.00 | 0.02 | 0.02 | 73 | 1019.4 |
| 20260902124506 | 70 | 242 | 5.0 | 11.0 | 0.00 | 0.02 | 0.02 | 73 | 1019.5 |
| 20260902124006 | 71 | 237 | 4.0 | 14.0 | 0.00 | 0.02 | 0.02 | 76 | 1019.5 |
| 20260902123505 | 71 | 222 | 4.0 | 14.0 | 0.00 | 0.02 | 0.02 | 75 | 1019.5 |
| 20260902123005 | 70 | 221 | 5.0 | 11.0 | 0.00 | 0.02 | 0.02 | 76 | 1019.5 |
| 20260902122505 | 69 | 234 | 5.0 | 11.0 | 0.00 | 0.02 | 0.02 | 78 | 1019.5 |
| 20260902121506 | 69 | 253 | 5.0 | 13.0 | 0.00 | 0.02 | 0.02 | 79 | 1019.6 |
| 20260902121006 | 68 | 240 | 5.0 | 12.0 | 0.00 | 0.02 | 0.02 | 79 | 1019.6 |
| 20260902120006 | 68 | 226 | 5.0 | 11.0 | 0.02 | 0.02 | 0.02 | 81 | 1019.6 |
| 20260902115005 | 68 | 240 | 2.0 | 9.0 | 0.02 | 0.02 | 0.02 | 83 | 1019.7 |
| 20260902114506 | 68 | 248 | 3.0 | 9.0 | 0.02 | 0.02 | 0.02 | 84 | 1019.7 |
| 20260902114005 | 67 | 256 | 2.0 | 7.0 | 0.02 | 0.02 | 0.02 | 87 | 1019.7 |
| 20260902113506 | 67 | 256 | 1.0 | 7.0 | 0.02 | 0.02 | 0.02 | 87 | 1019.7 |
| 20260902113006 | 66 | 251 | 2.0 | 7.0 | 0.02 | 0.02 | 0.02 | 88 | 1019.8 |
| 20260902112006 | 66 | 253 | 4.0 | 9.0 | 0.02 | 0.02 | 0.02 | 87 | 1019.9 |
| 20260902111506 | 66 | 253 | 5.0 | 10.0 | 0.02 | 0.02 | 0.02 | 86 | 1019.9 |
| 20260902111005 | 67 | 260 | 5.0 | 10.0 | 0.02 | 0.02 | 0.02 | 84 | 1019.8 |
| 20260902110505 | 68 | 252 | 5.0 | 10.0 | 0.00 | 0.00 | 0.00 | 81 | 1019.9 |
| 20260902110007 | 69 | 241 | 4.0 | 10.0 | 0.00 | 0.00 | 0.00 | 78 | 1019.8 |
| 20260902105506 | 69 | 248 | 3.0 | 10.0 | 0.00 | 0.00 | 0.00 | 77 | 1019.7 |
| 20260902105006 | 69 | 250 | 3.0 | 10.0 | 0.00 | 0.00 | 0.00 | 77 | 1019.8 |
| 20260902104505 | 70 | 259 | 3.0 | 10.0 | 0.00 | 0.00 | 0.00 | 76 | 1019.7 |
| 20260902104005 | 70 | 257 | 4.0 | 11.0 | 0.00 | 0.00 | 0.00 | 75 | 1019.7 |
| 20260902103506 | 71 | 247 | 5.0 | 11.0 | 0.00 | 0.00 | 0.00 | 75 | 1019.6 |
| 20260902103005 | 72 | 240 | 4.0 | 11.0 | 0.00 | 0.00 | 0.00 | 73 | 1019.6 |
| 20260902102507 | 73 | 213 | 3.0 | 10.0 | 0.00 | 0.00 | 0.00 | 75 | 1019.7 |
| 20260902102005 | 72 | 217 | 4.0 | 10.0 | 0.00 | 0.00 | 0.00 | 75 | 1019.7 |
| 20260902101506 | 72 | 234 | 3.0 | 10.0 | 0.00 | 0.00 | 0.00 | 77 | 1019.9 |
| 20260902100505 | 70 | 205 | 4.0 | 9.0 | 0.00 | 0.00 | 0.00 | 81 | 1019.9 |
| 20260902100006 | 69 | 208 | 4.0 | 9.0 | 0.00 | 0.00 | 0.00 | 80 | 1019.8 |
| 20260902095506 | 69 | 212 | 3.0 | 10.0 | 0.00 | 0.00 | 0.00 | 81 | 1019.7 |
| 20260902095006 | 68 | 206 | 2.0 | 10.0 | 0.00 | 0.00 | 0.00 | 82 | 1019.7 |
| 20260902094006 | 68 | 217 | 4.0 | 10.0 | 0.00 | 0.00 | 0.00 | 81 | 1019.7 |
| 20260902093505 | 69 | 230 | 3.0 | 11.0 | 0.00 | 0.00 | 0.00 | 81 | 1019.7 |
| 20260902093006 | 69 | 229 | 3.0 | 11.0 | 0.00 | 0.00 | 0.00 | 81 | 1019.9 |
| 20260902092505 | 68 | 219 | 3.0 | 10.0 | 0.00 | 0.00 | 0.00 | 82 | 1019.8 |
| 20260902092007 | 69 | 213 | 3.0 | 9.0 | 0.00 | 0.00 | 0.00 | 82 | 1019.9 |
| 20260902091005 | 68 | 221 | 4.0 | 12.0 | 0.00 | 0.00 | 0.00 | 83 | 1019.8 |
| 20260902090507 | 68 | 226 | 4.0 | 11.0 | 0.00 | 0.00 | 0.00 | 83 | 1019.9 |
| 20260902090006 | 68 | 232 | 5.0 | 11.0 | 0.00 | 0.00 | 0.00 | 84 | 1019.7 |
| 20260902085505 | 67 | 238 | 5.0 | 11.0 | 0.00 | 0.00 | 0.00 | 84 | 1019.7 |
| 20260902085007 | 67 | 230 | 4.0 | 11.0 | 0.00 | 0.00 | 0.00 | 84 | 1019.7 |
| 20260902084505 | 66 | 217 | 4.0 | 11.0 | 0.00 | 0.00 | 0.00 | 86 | 1019.6 |
| 20260902084006 | 66 | 221 | 3.0 | 9.0 | 0.00 | 0.00 | 0.00 | 85 | 1019.6 |
| 20260902083506 | 65 | 216 | 3.0 | 9.0 | 0.00 | 0.00 | 0.00 | 86 | 1019.5 |
| 20260902083006 | 65 | 210 | 3.0 | 9.0 | 0.00 | 0.00 | 0.00 | 85 | 1019.4 |
| 20260902082006 | 65 | 207 | 2.0 | 10.0 | 0.00 | 0.00 | 0.00 | 86 | 1019.3 |
| 20260902081506 | 65 | 214 | 2.0 | 8.0 | 0.00 | 0.00 | 0.00 | 86 | 1019.2 |
| 20260902081005 | 65 | 211 | 3.0 | 8.0 | 0.00 | 0.00 | 0.00 | 86 | 1019.3 |
| 20260902080507 | 64 | 212 | 3.0 | 10.0 | 0.00 | 0.00 | 0.00 | 86 | 1019.3 |
| 20260902080005 | 64 | 217 | 3.0 | 10.0 | 0.00 | 0.00 | 0.00 | 86 | 1019.3 |
| 20260902075506 | 64 | 219 | 3.0 | 9.0 | 0.00 | 0.00 | 0.00 | 86 | 1019.2 |
| 20260902075005 | 64 | 217 | 3.0 | 10.0 | 0.00 | 0.00 | 0.00 | 87 | 1019.2 |
| 20260902074006 | 64 | 208 | 2.0 | 10.0 | 0.00 | 0.00 | 0.00 | 87 | 1019.2 |
| 20260902073506 | 63 | 201 | 2.0 | 10.0 | 0.00 | 0.00 | 0.00 | 88 | 1019.1 |
| 20260902073005 | 62 | 208 | 1.0 | 8.0 | 0.00 | 0.00 | 0.00 | 88 | 1018.9 |
| 20260902072505 | 62 | 196 | 1.0 | 6.0 | 0.00 | 0.00 | 0.00 | 89 | 1019.0 |
| 20260902072005 | 62 | 190 | 2.0 | 7.0 | 0.00 | 0.00 | 0.00 | 89 | 1019.0 |
| 20260902071505 | 62 | 191 | 2.0 | 7.0 | 0.00 | 0.00 | 0.00 | 89 | 1018.9 |
| 20260902071006 | 61 | 188 | 2.0 | 6.0 | 0.00 | 0.00 | 0.00 | 89 | 1019.0 |
| 20260902070506 | 61 | 192 | 2.0 | 6.0 | 0.00 | 0.00 | 0.00 | 89 | 1018.9 |
| 20260902070007 | 61 | 193 | 2.0 | 8.0 | 0.00 | 0.00 | 0.00 | 89 | 1019.0 |
| 20260902065006 | 61 | 207 | 2.0 | 8.0 | 0.00 | 0.00 | 0.00 | 89 | 1018.9 |
| 20260902064506 | 61 | 211 | 2.0 | 8.0 | 0.00 | 0.00 | 0.00 | 89 | 1018.9 |
| 20260902063505 | 61 | 212 | 3.0 | 10.0 | 0.00 | 0.00 | 0.00 | 89 | 1018.8 |
| 20260902063006 | 61 | 211 | 3.0 | 9.0 | 0.00 | 0.00 | 0.00 | 89 | 1018.9 |
| 20260902062005 | 60 | 274 | 0.0 | 1.0 | 0.00 | 0.00 | 0.00 | 91 | 1018.9 |
| 20260902061506 | 60 | 0 | 0.0 | 0.0 | 0.00 | 0.00 | 0.00 | 91 | 1018.9 |
| 20260902061005 | 59 | 0 | 0.0 | 0.0 | 0.00 | 0.00 | 0.00 | 91 | 1018.9 |
| 20260902060005 | 58 | 0 | 0.0 | 0.0 | 0.00 | 0.00 | 0.00 | 92 | 1018.9 |
| 20260902055506 | 58 | 0 | 0.0 | 0.0 | 0.00 | 0.00 | 0.00 | 92 | 1018.8 |
| 20260902055005 | 58 | 0 | 0.0 | 0.0 | 0.00 | 0.00 | 0.00 | 92 | 1018.8 |
| 20260902054505 | 58 | 0 | 0.0 | 0.0 | 0.00 | 0.00 | 0.00 | 92 | 1018.7 |
| 20260902054006 | 58 | 0 | 0.0 | 0.0 | 0.00 | 0.00 | 0.00 | 92 | 1018.8 |
| 20260902053506 | 58 | 0 | 0.0 | 0.0 | 0.00 | 0.00 | 0.00 | 92 | 1018.7 |
| 20260902053005 | 58 | 0 | 0.0 | 0.0 | 0.00 | 0.00 | 0.00 | 92 | 1018.7 |
| 20260902052505 | 58 | 0 | 0.0 | 0.0 | 0.00 | 0.00 | 0.00 | 91 | 1018.7 |
| 20260902052006 | 58 | 0 | 0.0 | 0.0 | 0.00 | 0.00 | 0.00 | 91 | 1018.7 |
| 20260902051507 | 58 | 0 | 0.0 | 0.0 | 0.00 | 0.00 | 0.00 | 91 | 1018.7 |
| 20260902051006 | 58 | 0 | 0.0 | 0.0 | 0.00 | 0.00 | 0.00 | 91 | 1018.7 |
| 20260902050008 | 58 | 0 | 0.0 | 0.0 | 0.00 | 0.00 | 0.00 | 91 | 1018.6 |
| 20260902045506 | 58 | 163 | 0.0 | 1.0 | 0.00 | 0.00 | 0.00 | 91 | 1018.6 |
| 20260902045005 | 58 | 163 | 0.0 | 1.0 | 0.00 | 0.00 | 0.00 | 91 | 1018.6 |
| 20260902044506 | 58 | 0 | 0.0 | 0.0 | 0.00 | 0.00 | 0.00 | 91 | 1018.6 |
| 20260902043505 | 58 | 0 | 0.0 | 0.0 | 0.00 | 0.00 | 0.00 | 90 | 1018.6 |
| 20260902043006 | 58 | 0 | 0.0 | 0.0 | 0.00 | 0.00 | 0.00 | 90 | 1018.6 |
| 20260902042506 | 58 | 178 | 0.0 | 1.0 | 0.00 | 0.00 | 0.00 | 90 | 1018.6 |
| 20260902042005 | 58 | 178 | 0.0 | 1.0 | 0.00 | 0.00 | 0.00 | 90 | 1018.6 |
| 20260902041506 | 58 | 0 | 0.0 | 0.0 | 0.00 | 0.00 | 0.00 | 90 | 1018.7 |
| 20260902041007 | 58 | 0 | 0.0 | 0.0 | 0.00 | 0.00 | 0.00 | 90 | 1018.6 |
| 20260902040006 | 59 | 0 | 0.0 | 0.0 | 0.00 | 0.00 | 0.00 | 89 | 1018.5 |
| 20260902035006 | 59 | 0 | 0.0 | 0.0 | 0.00 | 0.00 | 0.00 | 89 | 1018.7 |
| 20260902034506 | 59 | 0 | 0.0 | 0.0 | 0.00 | 0.00 | 0.00 | 89 | 1018.7 |
| 20260902034006 | 59 | 0 | 0.0 | 0.0 | 0.00 | 0.00 | 0.00 | 89 | 1018.7 |
| 20260902033006 | 59 | 189 | 0.0 | 1.0 | 0.00 | 0.00 | 0.00 | 89 | 1018.8 |
| 20260902032506 | 59 | 0 | 0.0 | 0.0 | 0.00 | 0.00 | 0.00 | 90 | 1018.9 |
| 20260902031506 | 59 | 0 | 0.0 | 0.0 | 0.00 | 0.00 | 0.00 | 90 | 1018.8 |
| 20260902030506 | 59 | 0 | 0.0 | 0.0 | 0.00 | 0.00 | 0.00 | 89 | 1018.9 |
| 20260902030006 | 59 | 0 | 0.0 | 0.0 | 0.00 | 0.00 | 0.00 | 89 | 1019.0 |
| 20260902025506 | 59 | 0 | 0.0 | 0.0 | 0.00 | 0.00 | 0.00 | 89 | 1018.9 |
| 20260902025006 | 59 | 0 | 0.0 | 0.0 | 0.00 | 0.00 | 0.00 | 88 | 1019.0 |
| 20260902024506 | 60 | 0 | 0.0 | 0.0 | 0.00 | 0.00 | 0.00 | 88 | 1019.0 |
| 20260902024006 | 60 | 0 | 0.0 | 0.0 | 0.00 | 0.00 | 0.00 | 88 | 1019.0 |
| 20260902023505 | 60 | 0 | 0.0 | 0.0 | 0.00 | 0.00 | 0.00 | 88 | 1018.9 |
| 20260902022507 | 60 | 0 | 0.0 | 0.0 | 0.00 | 0.00 | 0.00 | 89 | 1019.0 |
| 20260902022007 | 59 | 0 | 0.0 | 0.0 | 0.00 | 0.00 | 0.00 | 89 | 1019.0 |
| 20260902021506 | 60 | 0 | 0.0 | 0.0 | 0.00 | 0.00 | 0.00 | 89 | 1019.1 |
| 20260902020506 | 59 | 0 | 0.0 | 0.0 | 0.00 | 0.00 | 0.00 | 89 | 1019.1 |
| 20260902020006 | 59 | 0 | 0.0 | 0.0 | 0.00 | 0.00 | 0.00 | 89 | 1019.2 |